sensor_id;sensor_type;location;lat;lon;timestamp;temperature;humidity
46732;DHT22;32477;51.474;5.696;2022-09-01T00:00:24;16.50;92.40
46732;DHT22;32477;51.474;5.696;2022-09-01T00:02:54;16.40;92.50
46732;DHT22;32477;51.474;5.696;2022-09-01T00:05:20;16.40;92.60
46732;DHT22;32477;51.474;5.696;2022-09-01T00:07:46;16.30;92.70
46732;DHT22;32477;51.474;5.696;2022-09-01T00:10:13;16.20;92.70
46732;DHT22;32477;51.474;5.696;2022-09-01T00:12:38;16.20;92.90
46732;DHT22;32477;51.474;5.696;2022-09-01T00:15:07;16.20;92.90
46732;DHT22;32477;51.474;5.696;2022-09-01T00:17:33;16.10;93.00
46732;DHT22;32477;51.474;5.696;2022-09-01T00:19:59;16.10;93.20
46732;DHT22;32477;51.474;5.696;2022-09-01T00:22:25;16.00;93.40
46732;DHT22;32477;51.474;5.696;2022-09-01T00:24:50;16.10;93.60
46732;DHT22;32477;51.474;5.696;2022-09-01T00:27:16;16.00;93.50
46732;DHT22;32477;51.474;5.696;2022-09-01T00:29:42;15.90;93.70
46732;DHT22;32477;51.474;5.696;2022-09-01T00:32:07;15.90;93.80
46732;DHT22;32477;51.474;5.696;2022-09-01T00:34:33;15.90;94.00
46732;DHT22;32477;51.474;5.696;2022-09-01T00:36:59;15.80;94.00
46732;DHT22;32477;51.474;5.696;2022-09-01T00:39:24;15.80;94.10
46732;DHT22;32477;51.474;5.696;2022-09-01T00:41:50;15.80;94.30
46732;DHT22;32477;51.474;5.696;2022-09-01T00:44:19;15.80;94.40
46732;DHT22;32477;51.474;5.696;2022-09-01T00:46:49;15.80;94.50
46732;DHT22;32477;51.474;5.696;2022-09-01T00:49:25;15.80;94.70
46732;DHT22;32477;51.474;5.696;2022-09-01T00:51:55;15.80;94.80
46732;DHT22;32477;51.474;5.696;2022-09-01T00:54:26;15.70;94.90
46732;DHT22;32477;51.474;5.696;2022-09-01T00:56:53;15.70;95.00
46732;DHT22;32477;51.474;5.696;2022-09-01T00:59:21;15.70;95.20
46732;DHT22;32477;51.474;5.696;2022-09-01T01:01:48;15.60;95.30
46732;DHT22;32477;51.474;5.696;2022-09-01T01:04:15;15.60;95.50
46732;DHT22;32477;51.474;5.696;2022-09-01T01:06:47;15.50;95.70
46732;DHT22;32477;51.474;5.696;2022-09-01T01:09:16;15.50;95.80
46732;DHT22;32477;51.474;5.696;2022-09-01T01:11:43;15.40;96.00
46732;DHT22;32477;51.474;5.696;2022-09-01T01:14:13;15.30;96.30
46732;DHT22;32477;51.474;5.696;2022-09-01T01:16:45;15.30;96.40
46732;DHT22;32477;51.474;5.696;2022-09-01T01:22:21;15.30;96.60
46732;DHT22;32477;51.474;5.696;2022-09-01T01:25:07;15.20;96.70
46732;DHT22;32477;51.474;5.696;2022-09-01T01:27:33;15.20;97.00
46732;DHT22;32477;51.474;5.696;2022-09-01T01:30:02;15.10;97.20
46732;DHT22;32477;51.474;5.696;2022-09-01T01:32:29;15.10;97.30
46732;DHT22;32477;51.474;5.696;2022-09-01T01:34:55;15.10;97.40
46732;DHT22;32477;51.474;5.696;2022-09-01T01:37:22;15.00;97.60
46732;DHT22;32477;51.474;5.696;2022-09-01T01:39:50;15.00;97.80
46732;DHT22;32477;51.474;5.696;2022-09-01T01:42:16;14.90;98.00
46732;DHT22;32477;51.474;5.696;2022-09-01T01:44:42;14.90;98.20
46732;DHT22;32477;51.474;5.696;2022-09-01T01:47:11;14.90;98.30
46732;DHT22;32477;51.474;5.696;2022-09-01T01:49:39;14.90;98.70
46732;DHT22;32477;51.474;5.696;2022-09-01T01:52:09;14.90;98.60
46732;DHT22;32477;51.474;5.696;2022-09-01T01:54:35;14.90;98.70
46732;DHT22;32477;51.474;5.696;2022-09-01T01:57:01;14.90;98.80
46732;DHT22;32477;51.474;5.696;2022-09-01T01:59:28;14.90;98.90
46732;DHT22;32477;51.474;5.696;2022-09-01T02:01:54;14.90;98.90
46732;DHT22;32477;51.474;5.696;2022-09-01T02:04:21;14.80;99.10
46732;DHT22;32477;51.474;5.696;2022-09-01T02:06:48;14.80;99.10
46732;DHT22;32477;51.474;5.696;2022-09-01T02:09:18;14.80;99.20
46732;DHT22;32477;51.474;5.696;2022-09-01T02:11:44;14.80;99.30
46732;DHT22;32477;51.474;5.696;2022-09-01T02:14:10;14.80;99.40
46732;DHT22;32477;51.474;5.696;2022-09-01T02:16:38;14.80;99.50
46732;DHT22;32477;51.474;5.696;2022-09-01T02:19:06;14.80;99.60
46732;DHT22;32477;51.474;5.696;2022-09-01T02:21:34;14.70;99.80
46732;DHT22;32477;51.474;5.696;2022-09-01T02:24:05;14.70;99.90
46732;DHT22;32477;51.474;5.696;2022-09-01T02:26:38;14.70;99.90
46732;DHT22;32477;51.474;5.696;2022-09-01T02:29:07;14.60;99.90
46732;DHT22;32477;51.474;5.696;2022-09-01T02:31:34;14.60;99.90
46732;DHT22;32477;51.474;5.696;2022-09-01T02:34:04;14.60;99.90
46732;DHT22;32477;51.474;5.696;2022-09-01T02:36:35;14.60;99.90
46732;DHT22;32477;51.474;5.696;2022-09-01T02:39:02;14.50;99.90
46732;DHT22;32477;51.474;5.696;2022-09-01T02:41:28;14.40;99.90
46732;DHT22;32477;51.474;5.696;2022-09-01T02:43:56;14.30;99.90
46732;DHT22;32477;51.474;5.696;2022-09-01T02:46:23;14.40;99.90
46732;DHT22;32477;51.474;5.696;2022-09-01T02:48:48;14.40;99.90
46732;DHT22;32477;51.474;5.696;2022-09-01T02:51:17;14.30;99.90
46732;DHT22;32477;51.474;5.696;2022-09-01T02:53:44;14.30;99.90
46732;DHT22;32477;51.474;5.696;2022-09-01T02:56:14;14.20;99.90
46732;DHT22;32477;51.474;5.696;2022-09-01T02:58:43;14.20;99.90
46732;DHT22;32477;51.474;5.696;2022-09-01T03:01:20;14.20;99.90
46732;DHT22;32477;51.474;5.696;2022-09-01T03:03:51;14.20;99.90
46732;DHT22;32477;51.474;5.696;2022-09-01T03:06:18;14.20;99.90
46732;DHT22;32477;51.474;5.696;2022-09-01T03:08:45;14.10;99.90
46732;DHT22;32477;51.474;5.696;2022-09-01T03:11:11;14.10;99.90
46732;DHT22;32477;51.474;5.696;2022-09-01T03:13:39;14.20;99.90
46732;DHT22;32477;51.474;5.696;2022-09-01T03:16:06;14.20;99.90
46732;DHT22;32477;51.474;5.696;2022-09-01T03:18:33;14.10;99.90
46732;DHT22;32477;51.474;5.696;2022-09-01T03:20:59;14.20;99.90
46732;DHT22;32477;51.474;5.696;2022-09-01T03:23:27;14.20;99.90
46732;DHT22;32477;51.474;5.696;2022-09-01T03:25:54;14.10;99.90
46732;DHT22;32477;51.474;5.696;2022-09-01T03:28:19;14.10;99.90
46732;DHT22;32477;51.474;5.696;2022-09-01T03:30:47;14.10;99.90
46732;DHT22;32477;51.474;5.696;2022-09-01T03:33:15;14.10;99.90
46732;DHT22;32477;51.474;5.696;2022-09-01T03:35:42;14.10;99.90
46732;DHT22;32477;51.474;5.696;2022-09-01T03:38:09;14.00;99.90
46732;DHT22;32477;51.474;5.696;2022-09-01T03:40:37;14.10;99.90
46732;DHT22;32477;51.474;5.696;2022-09-01T03:43:05;14.00;99.90
46732;DHT22;32477;51.474;5.696;2022-09-01T03:45:34;14.10;99.90
46732;DHT22;32477;51.474;5.696;2022-09-01T03:48:03;14.10;99.90
46732;DHT22;32477;51.474;5.696;2022-09-01T03:50:35;14.00;99.90
46732;DHT22;32477;51.474;5.696;2022-09-01T03:53:02;14.00;99.90
46732;DHT22;32477;51.474;5.696;2022-09-01T03:55:30;13.80;99.90
46732;DHT22;32477;51.474;5.696;2022-09-01T03:57:59;13.80;99.90
46732;DHT22;32477;51.474;5.696;2022-09-01T04:00:27;13.70;99.90
46732;DHT22;32477;51.474;5.696;2022-09-01T04:02:57;13.60;99.90
46732;DHT22;32477;51.474;5.696;2022-09-01T04:05:27;13.60;99.90
46732;DHT22;32477;51.474;5.696;2022-09-01T04:07:55;13.50;99.90
46732;DHT22;32477;51.474;5.696;2022-09-01T04:10:21;13.40;99.90
46732;DHT22;32477;51.474;5.696;2022-09-01T04:12:47;13.40;99.90
46732;DHT22;32477;51.474;5.696;2022-09-01T04:15:15;13.40;99.90
46732;DHT22;32477;51.474;5.696;2022-09-01T04:17:42;13.30;99.90
46732;DHT22;32477;51.474;5.696;2022-09-01T04:20:26;13.30;99.90
46732;DHT22;32477;51.474;5.696;2022-09-01T04:22:52;13.20;99.90
46732;DHT22;32477;51.474;5.696;2022-09-01T04:25:19;13.20;99.90
46732;DHT22;32477;51.474;5.696;2022-09-01T04:27:50;13.10;99.90
46732;DHT22;32477;51.474;5.696;2022-09-01T04:30:18;13.10;99.90
46732;DHT22;32477;51.474;5.696;2022-09-01T04:32:44;13.00;99.90
46732;DHT22;32477;51.474;5.696;2022-09-01T04:35:11;13.00;99.90
46732;DHT22;32477;51.474;5.696;2022-09-01T04:37:41;12.90;99.90
46732;DHT22;32477;51.474;5.696;2022-09-01T04:40:08;12.90;99.90
46732;DHT22;32477;51.474;5.696;2022-09-01T04:42:34;12.80;99.90
46732;DHT22;32477;51.474;5.696;2022-09-01T04:45:01;12.80;99.90
46732;DHT22;32477;51.474;5.696;2022-09-01T04:47:27;12.80;99.90
46732;DHT22;32477;51.474;5.696;2022-09-01T04:49:56;12.80;99.90
46732;DHT22;32477;51.474;5.696;2022-09-01T04:52:25;12.80;99.90
46732;DHT22;32477;51.474;5.696;2022-09-01T04:54:51;12.90;99.90
46732;DHT22;32477;51.474;5.696;2022-09-01T04:57:16;12.80;99.90
46732;DHT22;32477;51.474;5.696;2022-09-01T04:59:42;12.80;99.90
46732;DHT22;32477;51.474;5.696;2022-09-01T05:02:09;12.80;99.90
46732;DHT22;32477;51.474;5.696;2022-09-01T05:04:35;12.80;99.90
46732;DHT22;32477;51.474;5.696;2022-09-01T05:07:02;12.90;99.90
46732;DHT22;32477;51.474;5.696;2022-09-01T05:09:30;12.90;99.90
46732;DHT22;32477;51.474;5.696;2022-09-01T05:11:56;12.80;99.90
46732;DHT22;32477;51.474;5.696;2022-09-01T05:14:23;12.90;99.90
46732;DHT22;32477;51.474;5.696;2022-09-01T05:16:49;12.80;99.90
46732;DHT22;32477;51.474;5.696;2022-09-01T05:19:16;12.90;99.90
46732;DHT22;32477;51.474;5.696;2022-09-01T05:21:43;12.90;99.90
46732;DHT22;32477;51.474;5.696;2022-09-01T05:24:12;12.80;99.90
46732;DHT22;32477;51.474;5.696;2022-09-01T05:26:39;12.80;99.90
46732;DHT22;32477;51.474;5.696;2022-09-01T05:29:06;12.80;99.90
46732;DHT22;32477;51.474;5.696;2022-09-01T05:31:52;12.80;99.90
46732;DHT22;32477;51.474;5.696;2022-09-01T05:34:20;12.80;99.90
46732;DHT22;32477;51.474;5.696;2022-09-01T05:36:51;12.90;99.90
46732;DHT22;32477;51.474;5.696;2022-09-01T05:39:17;13.00;99.90
46732;DHT22;32477;51.474;5.696;2022-09-01T05:41:43;13.00;99.90
46732;DHT22;32477;51.474;5.696;2022-09-01T05:44:10;13.10;99.90
46732;DHT22;32477;51.474;5.696;2022-09-01T05:46:37;13.10;99.90
46732;DHT22;32477;51.474;5.696;2022-09-01T05:49:05;13.20;99.90
46732;DHT22;32477;51.474;5.696;2022-09-01T05:51:32;13.30;99.90
46732;DHT22;32477;51.474;5.696;2022-09-01T05:54:00;13.40;99.90
46732;DHT22;32477;51.474;5.696;2022-09-01T05:56:28;13.60;99.90
46732;DHT22;32477;51.474;5.696;2022-09-01T05:58:54;13.70;99.90
46732;DHT22;32477;51.474;5.696;2022-09-01T06:01:22;13.80;99.90
46732;DHT22;32477;51.474;5.696;2022-09-01T06:03:50;14.10;99.90
46732;DHT22;32477;51.474;5.696;2022-09-01T06:06:20;14.40;99.90
46732;DHT22;32477;51.474;5.696;2022-09-01T06:08:51;14.80;99.90
46732;DHT22;32477;51.474;5.696;2022-09-01T06:11:19;15.00;99.90
46732;DHT22;32477;51.474;5.696;2022-09-01T06:13:49;15.10;99.90
46732;DHT22;32477;51.474;5.696;2022-09-01T06:16:17;15.10;99.90
46732;DHT22;32477;51.474;5.696;2022-09-01T06:18:44;15.90;99.90
46732;DHT22;32477;51.474;5.696;2022-09-01T06:21:11;16.90;99.90
46732;DHT22;32477;51.474;5.696;2022-09-01T06:23:40;17.70;99.90
46732;DHT22;32477;51.474;5.696;2022-09-01T06:26:15;17.90;99.80
46732;DHT22;32477;51.474;5.696;2022-09-01T06:28:42;18.10;99.50
46732;DHT22;32477;51.474;5.696;2022-09-01T06:31:08;18.20;98.60
46732;DHT22;32477;51.474;5.696;2022-09-01T06:33:33;17.60;99.20
46732;DHT22;32477;51.474;5.696;2022-09-01T06:36:00;17.10;99.90
46732;DHT22;32477;51.474;5.696;2022-09-01T06:38:28;16.50;99.90
46732;DHT22;32477;51.474;5.696;2022-09-01T06:41:01;16.20;99.90
46732;DHT22;32477;51.474;5.696;2022-09-01T06:43:29;15.90;99.90
46732;DHT22;32477;51.474;5.696;2022-09-01T06:45:55;15.60;99.90
46732;DHT22;32477;51.474;5.696;2022-09-01T06:48:21;15.50;99.90
46732;DHT22;32477;51.474;5.696;2022-09-01T06:50:48;15.40;99.90
46732;DHT22;32477;51.474;5.696;2022-09-01T06:53:14;15.40;99.90
46732;DHT22;32477;51.474;5.696;2022-09-01T06:55:43;15.30;99.90
46732;DHT22;32477;51.474;5.696;2022-09-01T06:58:11;15.30;99.90
46732;DHT22;32477;51.474;5.696;2022-09-01T07:00:40;15.30;99.90
46732;DHT22;32477;51.474;5.696;2022-09-01T07:03:13;15.50;99.90
46732;DHT22;32477;51.474;5.696;2022-09-01T07:05:44;16.10;99.90
46732;DHT22;32477;51.474;5.696;2022-09-01T07:08:15;17.50;99.90
46732;DHT22;32477;51.474;5.696;2022-09-01T07:10:48;18.90;99.80
46732;DHT22;32477;51.474;5.696;2022-09-01T07:13:20;20.20;97.00
46732;DHT22;32477;51.474;5.696;2022-09-01T07:15:52;20.90;96.00
46732;DHT22;32477;51.474;5.696;2022-09-01T07:18:22;21.60;94.80
46732;DHT22;32477;51.474;5.696;2022-09-01T07:20:50;22.20;93.70
46732;DHT22;32477;51.474;5.696;2022-09-01T07:23:16;22.50;92.90
46732;DHT22;32477;51.474;5.696;2022-09-01T07:25:43;22.30;92.60
46732;DHT22;32477;51.474;5.696;2022-09-01T07:28:10;22.80;92.40
46732;DHT22;32477;51.474;5.696;2022-09-01T07:30:44;22.60;92.40
46732;DHT22;32477;51.474;5.696;2022-09-01T07:33:12;23.00;92.10
46732;DHT22;32477;51.474;5.696;2022-09-01T07:35:40;22.90;92.00
46732;DHT22;32477;51.474;5.696;2022-09-01T07:38:06;23.40;91.40
46732;DHT22;32477;51.474;5.696;2022-09-01T07:40:35;23.50;91.50
46732;DHT22;32477;51.474;5.696;2022-09-01T07:43:02;23.70;91.20
46732;DHT22;32477;51.474;5.696;2022-09-01T07:45:34;23.80;91.10
46732;DHT22;32477;51.474;5.696;2022-09-01T07:48:05;24.50;90.40
46732;DHT22;32477;51.474;5.696;2022-09-01T07:50:42;24.40;90.20
46732;DHT22;32477;51.474;5.696;2022-09-01T07:53:13;24.30;90.00
46732;DHT22;32477;51.474;5.696;2022-09-01T07:55:45;24.60;90.30
46732;DHT22;32477;51.474;5.696;2022-09-01T07:58:14;25.30;89.20
46732;DHT22;32477;51.474;5.696;2022-09-01T08:00:40;25.20;87.90
46732;DHT22;32477;51.474;5.696;2022-09-01T08:03:08;25.20;88.30
46732;DHT22;32477;51.474;5.696;2022-09-01T08:05:34;25.20;88.10
46732;DHT22;32477;51.474;5.696;2022-09-01T08:08:00;25.70;87.20
46732;DHT22;32477;51.474;5.696;2022-09-01T08:10:25;25.80;86.40
46732;DHT22;32477;51.474;5.696;2022-09-01T08:12:51;25.50;86.50
46732;DHT22;32477;51.474;5.696;2022-09-01T08:15:17;25.60;86.50
46732;DHT22;32477;51.474;5.696;2022-09-01T08:17:43;26.00;86.20
46732;DHT22;32477;51.474;5.696;2022-09-01T08:20:10;25.90;85.90
46732;DHT22;32477;51.474;5.696;2022-09-01T08:22:36;25.80;85.60
46732;DHT22;32477;51.474;5.696;2022-09-01T08:25:05;25.90;85.40
46732;DHT22;32477;51.474;5.696;2022-09-01T08:27:32;26.10;85.30
46732;DHT22;32477;51.474;5.696;2022-09-01T08:30:02;26.30;84.20
46732;DHT22;32477;51.474;5.696;2022-09-01T08:32:29;26.50;84.20
46732;DHT22;32477;51.474;5.696;2022-09-01T08:34:54;26.60;84.00
46732;DHT22;32477;51.474;5.696;2022-09-01T08:37:21;26.70;83.40
46732;DHT22;32477;51.474;5.696;2022-09-01T08:39:47;27.10;82.80
46732;DHT22;32477;51.474;5.696;2022-09-01T08:45:20;27.50;82.40
46732;DHT22;32477;51.474;5.696;2022-09-01T08:47:50;27.40;81.50
46732;DHT22;32477;51.474;5.696;2022-09-01T08:50:18;27.20;81.50
46732;DHT22;32477;51.474;5.696;2022-09-01T08:52:55;27.60;81.20
46732;DHT22;32477;51.474;5.696;2022-09-01T08:55:35;27.60;81.20
46732;DHT22;32477;51.474;5.696;2022-09-01T08:58:04;27.90;80.90
46732;DHT22;32477;51.474;5.696;2022-09-01T09:00:38;27.70;80.40
46732;DHT22;32477;51.474;5.696;2022-09-01T09:03:47;27.30;80.50
46732;DHT22;32477;51.474;5.696;2022-09-01T09:06:39;27.30;80.60
46732;DHT22;32477;51.474;5.696;2022-09-01T09:09:04;27.70;80.20
46732;DHT22;32477;51.474;5.696;2022-09-01T09:17:03;28.10;79.00
46732;DHT22;32477;51.474;5.696;2022-09-01T09:19:35;28.10;79.00
46732;DHT22;32477;51.474;5.696;2022-09-01T09:22:05;28.70;79.40
46732;DHT22;32477;51.474;5.696;2022-09-01T09:24:58;29.10;77.90
46732;DHT22;32477;51.474;5.696;2022-09-01T09:30:04;28.90;77.40
46732;DHT22;32477;51.474;5.696;2022-09-01T09:38:15;29.20;76.00
46732;DHT22;32477;51.474;5.696;2022-09-01T09:41:17;29.20;75.60
46732;DHT22;32477;51.474;5.696;2022-09-01T09:43:59;29.00;75.10
46732;DHT22;32477;51.474;5.696;2022-09-01T09:49:19;29.20;74.60
46732;DHT22;32477;51.474;5.696;2022-09-01T09:51:50;29.30;72.90
46732;DHT22;32477;51.474;5.696;2022-09-01T09:57:11;28.60;73.90
46732;DHT22;32477;51.474;5.696;2022-09-01T09:59:45;29.20;73.40
46732;DHT22;32477;51.474;5.696;2022-09-01T10:08:02;28.90;70.30
46732;DHT22;32477;51.474;5.696;2022-09-01T10:12:55;29.20;68.50
46732;DHT22;32477;51.474;5.696;2022-09-01T10:15:27;28.80;69.40
46732;DHT22;32477;51.474;5.696;2022-09-01T10:17:54;29.20;68.00
46732;DHT22;32477;51.474;5.696;2022-09-01T10:20:25;29.50;67.60
46732;DHT22;32477;51.474;5.696;2022-09-01T10:22:51;30.20;67.80
46732;DHT22;32477;51.474;5.696;2022-09-01T10:25:27;30.30;66.30
46732;DHT22;32477;51.474;5.696;2022-09-01T10:27:57;30.00;66.60
46732;DHT22;32477;51.474;5.696;2022-09-01T10:30:25;29.90;66.60
46732;DHT22;32477;51.474;5.696;2022-09-01T10:32:57;30.00;66.30
46732;DHT22;32477;51.474;5.696;2022-09-01T10:35:33;30.30;65.60
46732;DHT22;32477;51.474;5.696;2022-09-01T10:38:08;30.00;64.50
46732;DHT22;32477;51.474;5.696;2022-09-01T10:43:23;28.00;66.60
46732;DHT22;32477;51.474;5.696;2022-09-01T10:45:50;28.90;66.60
46732;DHT22;32477;51.474;5.696;2022-09-01T10:48:27;29.20;66.70
46732;DHT22;32477;51.474;5.696;2022-09-01T10:53:40;29.40;64.60
46732;DHT22;32477;51.474;5.696;2022-09-01T10:56:25;30.00;64.70
46732;DHT22;32477;51.474;5.696;2022-09-01T11:09:45;29.70;62.50
46732;DHT22;32477;51.474;5.696;2022-09-01T11:14:52;29.80;62.60
46732;DHT22;32477;51.474;5.696;2022-09-01T11:17:38;30.00;62.80
46732;DHT22;32477;51.474;5.696;2022-09-01T11:25:54;30.50;60.70
46732;DHT22;32477;51.474;5.696;2022-09-01T11:33:56;31.60;59.70
46732;DHT22;32477;51.474;5.696;2022-09-01T11:36:31;32.30;59.20
46732;DHT22;32477;51.474;5.696;2022-09-01T11:44:25;31.40;58.00
46732;DHT22;32477;51.474;5.696;2022-09-01T11:46:56;30.90;57.80
46732;DHT22;32477;51.474;5.696;2022-09-01T11:49:36;30.70;58.00
46732;DHT22;32477;51.474;5.696;2022-09-01T11:52:03;31.20;58.00
46732;DHT22;32477;51.474;5.696;2022-09-01T11:54:37;31.10;57.20
46732;DHT22;32477;51.474;5.696;2022-09-01T11:57:20;31.30;56.80
46732;DHT22;32477;51.474;5.696;2022-09-01T11:59:46;30.50;56.60
46732;DHT22;32477;51.474;5.696;2022-09-01T12:02:20;30.60;56.90
46732;DHT22;32477;51.474;5.696;2022-09-01T12:04:47;31.60;56.10
46732;DHT22;32477;51.474;5.696;2022-09-01T12:07:43;31.60;55.90
46732;DHT22;32477;51.474;5.696;2022-09-01T12:10:29;31.30;55.70
46732;DHT22;32477;51.474;5.696;2022-09-01T12:13:06;31.00;55.00
46732;DHT22;32477;51.474;5.696;2022-09-01T12:15:33;31.30;55.40
46732;DHT22;32477;51.474;5.696;2022-09-01T12:18:25;31.40;55.70
46732;DHT22;32477;51.474;5.696;2022-09-01T12:20:53;31.50;55.30
46732;DHT22;32477;51.474;5.696;2022-09-01T12:23:31;31.90;53.80
46732;DHT22;32477;51.474;5.696;2022-09-01T12:26:01;32.10;53.40
46732;DHT22;32477;51.474;5.696;2022-09-01T12:28:31;32.50;53.40
46732;DHT22;32477;51.474;5.696;2022-09-01T12:31:02;31.70;53.70
46732;DHT22;32477;51.474;5.696;2022-09-01T12:33:30;31.60;53.80
46732;DHT22;32477;51.474;5.696;2022-09-01T12:36:19;31.80;53.80
46732;DHT22;32477;51.474;5.696;2022-09-01T12:38:46;31.90;53.50
46732;DHT22;32477;51.474;5.696;2022-09-01T12:43:51;31.40;54.10
46732;DHT22;32477;51.474;5.696;2022-09-01T12:46:39;31.80;53.90
46732;DHT22;32477;51.474;5.696;2022-09-01T12:49:16;32.10;53.70
46732;DHT22;32477;51.474;5.696;2022-09-01T12:51:42;32.50;52.80
46732;DHT22;32477;51.474;5.696;2022-09-01T12:54:10;31.00;53.20
46732;DHT22;32477;51.474;5.696;2022-09-01T12:56:36;30.70;53.60
46732;DHT22;32477;51.474;5.696;2022-09-01T12:59:19;31.00;53.70
46732;DHT22;32477;51.474;5.696;2022-09-01T13:01:45;30.70;53.80
46732;DHT22;32477;51.474;5.696;2022-09-01T13:06:47;31.40;53.80
46732;DHT22;32477;51.474;5.696;2022-09-01T13:09:13;31.50;53.60
46732;DHT22;32477;51.474;5.696;2022-09-01T13:11:40;31.80;53.30
46732;DHT22;32477;51.474;5.696;2022-09-01T13:14:12;32.00;53.10
46732;DHT22;32477;51.474;5.696;2022-09-01T13:16:38;31.80;53.20
46732;DHT22;32477;51.474;5.696;2022-09-01T13:19:03;31.30;52.70
46732;DHT22;32477;51.474;5.696;2022-09-01T13:21:32;31.20;52.80
46732;DHT22;32477;51.474;5.696;2022-09-01T13:23:59;31.00;52.90
46732;DHT22;32477;51.474;5.696;2022-09-01T13:26:25;30.60;53.10
46732;DHT22;32477;51.474;5.696;2022-09-01T13:28:52;30.80;53.00
46732;DHT22;32477;51.474;5.696;2022-09-01T13:31:18;30.40;52.80
46732;DHT22;32477;51.474;5.696;2022-09-01T13:33:44;30.10;52.90
46732;DHT22;32477;51.474;5.696;2022-09-01T13:36:09;29.80;52.80
46732;DHT22;32477;51.474;5.696;2022-09-01T13:38:35;30.40;52.70
46732;DHT22;32477;51.474;5.696;2022-09-01T13:41:01;30.70;53.00
46732;DHT22;32477;51.474;5.696;2022-09-01T13:43:27;30.30;53.20
46732;DHT22;32477;51.474;5.696;2022-09-01T13:45:53;30.00;53.50
46732;DHT22;32477;51.474;5.696;2022-09-01T13:48:20;30.70;53.40
46732;DHT22;32477;51.474;5.696;2022-09-01T13:50:47;30.30;53.40
46732;DHT22;32477;51.474;5.696;2022-09-01T13:53:14;30.80;53.50
46732;DHT22;32477;51.474;5.696;2022-09-01T13:55:41;31.20;53.30
46732;DHT22;32477;51.474;5.696;2022-09-01T13:58:07;30.40;53.40
46732;DHT22;32477;51.474;5.696;2022-09-01T14:00:37;30.70;53.70
46732;DHT22;32477;51.474;5.696;2022-09-01T14:03:06;30.50;53.20
46732;DHT22;32477;51.474;5.696;2022-09-01T14:05:35;30.40;53.40
46732;DHT22;32477;51.474;5.696;2022-09-01T14:08:02;30.50;53.80
46732;DHT22;32477;51.474;5.696;2022-09-01T14:10:29;30.70;52.70
46732;DHT22;32477;51.474;5.696;2022-09-01T14:12:59;30.00;53.10
46732;DHT22;32477;51.474;5.696;2022-09-01T14:15:25;30.00;53.40
46732;DHT22;32477;51.474;5.696;2022-09-01T14:17:52;30.00;53.30
46732;DHT22;32477;51.474;5.696;2022-09-01T14:20:20;30.50;53.30
46732;DHT22;32477;51.474;5.696;2022-09-01T14:22:47;30.40;52.90
46732;DHT22;32477;51.474;5.696;2022-09-01T14:25:14;30.20;52.90
46732;DHT22;32477;51.474;5.696;2022-09-01T14:27:40;30.20;53.30
46732;DHT22;32477;51.474;5.696;2022-09-01T14:30:13;30.00;53.70
46732;DHT22;32477;51.474;5.696;2022-09-01T14:32:39;29.70;54.00
46732;DHT22;32477;51.474;5.696;2022-09-01T14:35:05;28.80;54.60
46732;DHT22;32477;51.474;5.696;2022-09-01T14:37:33;27.80;55.20
46732;DHT22;32477;51.474;5.696;2022-09-01T14:39:58;27.20;56.20
46732;DHT22;32477;51.474;5.696;2022-09-01T14:42:24;26.50;56.60
46732;DHT22;32477;51.474;5.696;2022-09-01T14:44:50;26.30;57.30
46732;DHT22;32477;51.474;5.696;2022-09-01T14:47:16;26.30;57.30
46732;DHT22;32477;51.474;5.696;2022-09-01T14:49:42;26.20;58.00
46732;DHT22;32477;51.474;5.696;2022-09-01T14:52:09;26.00;58.50
46732;DHT22;32477;51.474;5.696;2022-09-01T14:54:40;25.90;58.40
46732;DHT22;32477;51.474;5.696;2022-09-01T14:57:09;25.90;58.50
46732;DHT22;32477;51.474;5.696;2022-09-01T14:59:35;26.10;58.50
46732;DHT22;32477;51.474;5.696;2022-09-01T15:02:03;26.10;58.10
46732;DHT22;32477;51.474;5.696;2022-09-01T15:04:29;25.90;58.60
46732;DHT22;32477;51.474;5.696;2022-09-01T15:06:55;25.80;58.30
46732;DHT22;32477;51.474;5.696;2022-09-01T15:09:20;25.70;59.00
46732;DHT22;32477;51.474;5.696;2022-09-01T15:11:46;25.60;59.00
46732;DHT22;32477;51.474;5.696;2022-09-01T15:14:12;25.70;59.30
46732;DHT22;32477;51.474;5.696;2022-09-01T15:16:38;25.60;59.30
46732;DHT22;32477;51.474;5.696;2022-09-01T15:19:07;25.60;59.00
46732;DHT22;32477;51.474;5.696;2022-09-01T15:21:34;25.70;59.50
46732;DHT22;32477;51.474;5.696;2022-09-01T15:24:01;25.70;59.50
46732;DHT22;32477;51.474;5.696;2022-09-01T15:26:28;25.80;59.50
46732;DHT22;32477;51.474;5.696;2022-09-01T15:28:54;25.90;59.90
46732;DHT22;32477;51.474;5.696;2022-09-01T15:31:21;25.90;60.10
46732;DHT22;32477;51.474;5.696;2022-09-01T15:33:49;25.80;60.20
46732;DHT22;32477;51.474;5.696;2022-09-01T15:36:20;25.80;60.40
46732;DHT22;32477;51.474;5.696;2022-09-01T15:38:46;25.70;60.90
46732;DHT22;32477;51.474;5.696;2022-09-01T15:41:23;25.80;60.90
46732;DHT22;32477;51.474;5.696;2022-09-01T15:43:49;25.70;60.60
46732;DHT22;32477;51.474;5.696;2022-09-01T15:46:15;25.50;61.40
46732;DHT22;32477;51.474;5.696;2022-09-01T15:48:41;25.50;61.60
46732;DHT22;32477;51.474;5.696;2022-09-01T15:53:42;25.40;61.90
46732;DHT22;32477;51.474;5.696;2022-09-01T15:56:08;25.50;61.90
46732;DHT22;32477;51.474;5.696;2022-09-01T15:58:33;25.50;62.20
46732;DHT22;32477;51.474;5.696;2022-09-01T16:00:59;25.50;62.10
46732;DHT22;32477;51.474;5.696;2022-09-01T16:03:25;25.40;62.10
46732;DHT22;32477;51.474;5.696;2022-09-01T16:05:50;25.40;62.40
46732;DHT22;32477;51.474;5.696;2022-09-01T16:08:16;25.30;62.10
46732;DHT22;32477;51.474;5.696;2022-09-01T16:10:41;25.30;62.30
46732;DHT22;32477;51.474;5.696;2022-09-01T16:13:07;25.30;62.40
46732;DHT22;32477;51.474;5.696;2022-09-01T16:15:42;25.30;62.30
46732;DHT22;32477;51.474;5.696;2022-09-01T16:20:54;25.40;63.20
46732;DHT22;32477;51.474;5.696;2022-09-01T16:23:22;25.40;63.30
46732;DHT22;32477;51.474;5.696;2022-09-01T16:25:49;25.30;63.90
46732;DHT22;32477;51.474;5.696;2022-09-01T16:28:35;25.20;63.40
46732;DHT22;32477;51.474;5.696;2022-09-01T16:33:31;25.20;63.40
46732;DHT22;32477;51.474;5.696;2022-09-01T16:36:15;25.20;63.70
46732;DHT22;32477;51.474;5.696;2022-09-01T16:38:46;25.20;63.80
46732;DHT22;32477;51.474;5.696;2022-09-01T16:41:36;25.20;63.80
46732;DHT22;32477;51.474;5.696;2022-09-01T16:47:19;25.00;64.10
46732;DHT22;32477;51.474;5.696;2022-09-01T16:50:12;24.90;64.10
46732;DHT22;32477;51.474;5.696;2022-09-01T17:10:08;24.60;65.50
46732;DHT22;32477;51.474;5.696;2022-09-01T17:12:45;24.50;66.30
46732;DHT22;32477;51.474;5.696;2022-09-01T17:15:15;24.40;66.90
46732;DHT22;32477;51.474;5.696;2022-09-01T17:18:06;24.20;67.00
46732;DHT22;32477;51.474;5.696;2022-09-01T17:20:35;24.20;67.10
46732;DHT22;32477;51.474;5.696;2022-09-01T17:23:05;24.10;67.60
46732;DHT22;32477;51.474;5.696;2022-09-01T17:25:39;24.00;67.90